createdAt,value
2023-03-07T00:00:01.964Z,31.70
2023-03-07T00:02:32.386Z,37.70
2023-03-07T00:04:59.860Z,37.72
2023-03-07T00:07:27.198Z,31.10
2023-03-07T00:09:54.469Z,33.22
2023-03-07T00:12:22.327Z,37.60
2023-03-07T00:14:49.721Z,31.80
2023-03-07T00:17:17.217Z,37.45
2023-03-07T00:19:44.827Z,34.15
2023-03-07T00:22:14.600Z,31.20
2023-03-07T00:24:42.374Z,28.48
2023-03-07T00:27:10.298Z,30.40
2023-03-07T00:29:37.769Z,30.27
2023-03-07T00:32:05.435Z,30.58
2023-03-07T00:34:32.790Z,28.95
2023-03-07T00:37:00.106Z,30.02
2023-03-07T00:39:27.474Z,30.63
2023-03-07T00:41:54.939Z,31.73
2023-03-07T00:44:22.656Z,27.45
2023-03-07T00:46:50.002Z,31.60
2023-03-07T00:49:17.729Z,33.22
2023-03-07T00:51:45.136Z,31.45
2023-03-07T00:54:12.739Z,33.42
2023-03-07T00:56:40.541Z,33.10
2023-03-07T00:59:08.590Z,34.08
2023-03-07T01:01:36.509Z,30.30
2023-03-07T01:04:04.674Z,33.65
2023-03-07T01:06:33.275Z,30.45
2023-03-07T01:09:04.749Z,32.20
2023-03-07T01:11:33.817Z,33.65
2023-03-07T01:14:03.261Z,28.70
2023-03-07T01:16:33.763Z,35.28
2023-03-07T01:19:04.401Z,32.38
2023-03-07T01:21:38.231Z,31.92
2023-03-07T01:24:07.451Z,34.58
2023-03-07T01:26:35.362Z,36.42
2023-03-07T01:29:04.832Z,31.88
2023-03-07T01:31:35.691Z,32.78
2023-03-07T01:34:04.130Z,33.17
2023-03-07T01:36:35.546Z,30.65
2023-03-07T01:39:17.199Z,34.95
2023-03-07T01:41:55.695Z,34.03
2023-03-07T01:44:27.107Z,30.52
2023-03-07T01:46:59.995Z,33.90
2023-03-07T01:49:50.429Z,34.97
2023-03-07T01:52:23.109Z,34.35
2023-03-07T01:54:59.710Z,29.52
2023-03-07T01:57:32.579Z,33.70
2023-03-07T02:00:05.683Z,32.08
2023-03-07T02:02:43.813Z,34.38
2023-03-07T02:05:35.600Z,37.47
2023-03-07T02:08:04.249Z,32.75
2023-03-07T02:10:35.267Z,34.30
2023-03-07T02:13:03.522Z,29.65
2023-03-07T02:15:31.015Z,29.02
2023-03-07T02:17:59.049Z,34.38
2023-03-07T02:20:56.263Z,29.13
2023-03-07T02:23:48.952Z,29.42
2023-03-07T02:26:43.850Z,36.40
2023-03-07T02:29:12.186Z,34.83
2023-03-07T02:31:40.363Z,36.28
2023-03-07T02:34:23.180Z,33.92
2023-03-07T02:37:05.115Z,32.90
2023-03-07T02:39:33.805Z,34.25
2023-03-07T02:42:08.598Z,35.50
2023-03-07T02:44:46.649Z,35.40
2023-03-07T02:47:17.259Z,35.60
2023-03-07T02:49:44.929Z,29.67
2023-03-07T02:52:12.456Z,30.58
2023-03-07T02:54:40.119Z,34.95
2023-03-07T02:57:08.599Z,30.42
2023-03-07T02:59:36.214Z,31.85
2023-03-07T03:02:04.109Z,34.88
2023-03-07T03:04:31.523Z,35.85
2023-03-07T03:06:59.038Z,35.53
2023-03-07T03:09:26.439Z,34.85
2023-03-07T03:11:53.883Z,35.45
2023-03-07T03:14:24.860Z,34.40
2023-03-07T03:16:55.479Z,29.65
2023-03-07T03:20:02.488Z,32.15
2023-03-07T03:22:37.052Z,33.88
2023-03-07T03:25:10.063Z,38.20
2023-03-07T03:27:39.824Z,37.50
2023-03-07T03:30:09.990Z,36.85
2023-03-07T03:35:40.600Z,35.08
2023-03-07T03:38:10.964Z,32.88
2023-03-07T03:40:42.146Z,36.13
2023-03-07T03:43:09.854Z,34.22
2023-03-07T03:45:55.225Z,31.83
2023-03-07T03:48:30.005Z,36.28
2023-03-07T03:51:42.263Z,34.40
2023-03-07T03:54:12.473Z,39.60
2023-03-07T03:56:45.285Z,41.35
2023-03-07T03:59:31.590Z,40.78
2023-03-07T04:02:29.882Z,36.97
2023-03-07T04:05:02.709Z,29.90
2023-03-07T04:07:31.029Z,30.95
2023-03-07T04:10:09.904Z,35.75
2023-03-07T04:12:47.045Z,33.20
2023-03-07T04:15:18.750Z,32.83
2023-03-07T04:17:46.308Z,35.38
2023-03-07T04:20:17.584Z,32.70
2023-03-07T04:22:47.207Z,31.45
2023-03-07T04:25:32.493Z,35.00
2023-03-07T04:28:11.116Z,30.52
2023-03-07T04:34:27.354Z,28.88
2023-03-07T04:37:02.724Z,30.02
2023-03-07T04:39:39.383Z,34.03
2023-03-07T04:42:08.840Z,31.40
2023-03-07T04:44:37.463Z,29.67
2023-03-07T04:47:05.349Z,31.08
2023-03-07T04:49:35.834Z,30.90
2023-03-07T04:52:05.623Z,30.13
2023-03-07T04:54:33.447Z,28.50
2023-03-07T04:57:02.759Z,32.03
2023-03-07T04:59:30.486Z,30.60
2023-03-07T05:01:58.261Z,31.55
2023-03-07T05:04:26.033Z,31.42
2023-03-07T05:06:53.494Z,28.83
2023-03-07T05:09:21.093Z,31.60
2023-03-07T05:11:48.508Z,30.88
2023-03-07T05:14:16.077Z,27.58
2023-03-07T05:16:44.429Z,23.40
2023-03-07T05:19:13.496Z,23.88
2023-03-07T05:21:41.813Z,24.98
2023-03-07T05:24:10.210Z,28.52
2023-03-07T05:26:38.520Z,23.80
2023-03-07T05:29:06.261Z,27.60
2023-03-07T05:31:59.198Z,25.00
2023-03-07T05:34:27.279Z,23.42
2023-03-07T05:36:56.898Z,24.45
2023-03-07T05:39:25.405Z,23.20
2023-03-07T05:41:53.006Z,26.00
2023-03-07T05:44:21.257Z,22.08
2023-03-07T05:46:52.677Z,23.45
2023-03-07T05:49:20.799Z,23.08
2023-03-07T05:51:48.576Z,25.08
2023-03-07T05:57:59.239Z,23.50
2023-03-07T06:00:29.472Z,21.95
2023-03-07T06:03:03.340Z,21.45
2023-03-07T06:06:02.332Z,23.25
2023-03-07T06:08:33.405Z,20.27
2023-03-07T06:11:00.798Z,21.45
2023-03-07T06:14:29.733Z,21.75
2023-03-07T06:17:21.577Z,19.85
2023-03-07T06:20:22.699Z,18.83
2023-03-07T06:22:55.591Z,17.27
2023-03-07T06:25:23.304Z,16.58
2023-03-07T06:27:51.068Z,16.52
2023-03-07T06:30:51.825Z,19.75
2023-03-07T06:33:21.468Z,20.90
2023-03-07T06:35:48.919Z,20.23
2023-03-07T06:38:19.537Z,17.55
2023-03-07T06:40:56.880Z,16.45
2023-03-07T06:44:34.167Z,20.23
2023-03-07T06:47:01.988Z,20.02
2023-03-07T06:49:58.445Z,17.05
2023-03-07T06:52:38.932Z,18.30
2023-03-07T07:18:27.218Z,15.20
2023-03-07T07:21:11.475Z,18.48
2023-03-07T07:51:43.761Z,13.30
2023-03-07T08:55:36.281Z,9.15
2023-03-07T08:58:51.482Z,8.48
2023-03-07T09:07:07.638Z,9.82
2023-03-07T09:10:41.192Z,7.72
2023-03-07T09:13:51.020Z,7.82
2023-03-07T09:17:03.892Z,6.25
2023-03-07T09:26:39.337Z,7.50
2023-03-07T09:29:14.652Z,7.28
2023-03-07T09:31:45.112Z,6.13
2023-03-07T09:34:17.029Z,6.05
2023-03-07T09:37:48.056Z,8.07
2023-03-07T09:40:37.352Z,6.43
2023-03-07T09:43:26.206Z,6.88
2023-03-07T09:46:50.261Z,7.40
2023-03-07T09:49:34.133Z,5.38
2023-03-07T09:52:27.850Z,6.75
2023-03-07T09:55:14.172Z,6.63
2023-03-07T09:58:43.798Z,6.63
2023-03-07T10:13:32.942Z,7.13
2023-03-07T10:24:22.733Z,7.57
2023-03-07T10:27:23.386Z,7.47
2023-03-07T10:30:09.128Z,7.43
2023-03-07T10:37:09.671Z,7.28
2023-03-07T10:40:14.122Z,8.88
2023-03-07T10:43:01.803Z,8.77
2023-03-07T10:46:12.762Z,8.23
2023-03-07T10:49:33.370Z,8.82
2023-03-07T10:53:36.869Z,9.52
2023-03-07T10:56:17.489Z,8.40
2023-03-07T10:59:45.788Z,8.43
2023-03-07T11:02:25.453Z,8.57
2023-03-07T11:05:04.162Z,10.05
2023-03-07T11:07:36.507Z,7.35
2023-03-07T11:10:38.743Z,7.78
2023-03-07T11:13:20.681Z,7.38
2023-03-07T11:16:00.177Z,7.32
2023-03-07T11:18:46.019Z,8.00
2023-03-07T11:21:36.424Z,8.80
2023-03-07T11:24:07.200Z,7.97
2023-03-07T11:26:40.874Z,8.77
2023-03-07T11:29:15.224Z,8.63
2023-03-07T11:32:04.647Z,7.93
2023-03-07T11:34:50.130Z,7.93
2023-03-07T11:38:15.703Z,8.32
2023-03-07T11:41:07.890Z,8.48
2023-03-07T11:43:46.888Z,6.75
2023-03-07T11:46:44.796Z,8.23
2023-03-07T11:50:01.894Z,6.97
2023-03-07T11:52:44.161Z,9.50
2023-03-07T11:55:39.209Z,6.63
2023-03-07T11:58:57.235Z,7.33
2023-03-07T12:02:26.349Z,7.55
2023-03-07T12:05:38.551Z,8.25
2023-03-07T12:08:42.134Z,8.73
2023-03-07T12:11:38.984Z,7.30
2023-03-07T12:14:47.660Z,7.97
2023-03-07T12:17:24.506Z,6.88
2023-03-07T12:20:40.292Z,7.90
2023-03-07T12:23:16.388Z,8.77
2023-03-07T12:26:20.015Z,7.80
2023-03-07T12:29:28.165Z,6.78
2023-03-07T12:32:03.821Z,7.03
2023-03-07T12:35:07.006Z,7.15
2023-03-07T12:37:48.923Z,8.98
2023-03-07T12:40:26.717Z,7.28
2023-03-07T12:43:14.208Z,7.82
2023-03-07T12:46:43.144Z,8.07
2023-03-07T12:49:53.636Z,8.45
2023-03-07T12:52:36.747Z,10.00
2023-03-07T12:55:31.196Z,7.38
2023-03-07T12:58:46.366Z,8.52
2023-03-07T13:01:32.333Z,9.70
2023-03-07T13:04:47.543Z,7.72
2023-03-07T13:07:25.003Z,8.73
2023-03-07T13:09:57.037Z,7.53
2023-03-07T13:12:33.289Z,8.18
2023-03-07T13:15:01.400Z,8.93
2023-03-07T13:17:31.604Z,7.30
2023-03-07T13:20:15.476Z,8.48
2023-03-07T13:22:43.106Z,8.18
2023-03-07T13:25:43.946Z,7.60
2023-03-07T13:28:43.396Z,7.93
2023-03-07T13:31:28.107Z,8.37
2023-03-07T13:33:55.377Z,9.60
2023-03-07T13:36:38.672Z,7.25
2023-03-07T13:39:38.431Z,6.68
2023-03-07T13:42:44.061Z,7.35
2023-03-07T13:45:39.541Z,6.68
2023-03-07T13:48:26.878Z,8.65
2023-03-07T13:50:57.002Z,8.15
2023-03-07T13:53:41.609Z,7.53
2023-03-07T13:56:17.761Z,7.75
2023-03-07T13:59:14.906Z,8.40
2023-03-07T14:01:49.133Z,7.10
2023-03-07T14:04:54.267Z,8.77
2023-03-07T14:07:41.225Z,5.60
2023-03-07T14:10:30.990Z,8.52
2023-03-07T14:13:16.662Z,7.68
2023-03-07T14:16:27.112Z,6.75
2023-03-07T14:19:18.944Z,7.75
2023-03-07T14:22:03.906Z,7.28
2023-03-07T14:25:04.887Z,8.95
2023-03-07T14:27:47.402Z,6.18
2023-03-07T14:30:16.547Z,7.68
2023-03-07T14:32:43.836Z,7.45
2023-03-07T14:35:15.382Z,9.20
2023-03-07T14:37:45.349Z,9.43
2023-03-07T14:41:02.613Z,9.02
2023-03-07T14:43:37.344Z,8.02
2023-03-07T14:46:48.826Z,12.40
2023-03-07T14:49:43.396Z,6.28
2023-03-07T14:52:30.038Z,9.07
2023-03-07T14:55:02.202Z,8.20
2023-03-07T14:57:40.025Z,6.50
2023-03-07T15:00:25.967Z,7.55
2023-03-07T15:03:04.506Z,8.20
2023-03-07T15:05:55.129Z,9.13
2023-03-07T15:08:30.810Z,6.40
2023-03-07T15:11:33.344Z,8.02
2023-03-07T15:14:29.563Z,6.00
2023-03-07T15:17:08.276Z,6.90
2023-03-07T15:19:48.543Z,6.70
2023-03-07T15:22:26.325Z,8.85
2023-03-07T15:24:53.876Z,7.70
2023-03-07T15:27:30.641Z,7.85
2023-03-07T15:30:00.955Z,5.40
2023-03-07T15:32:38.998Z,7.10
2023-03-07T15:35:09.043Z,8.98
2023-03-07T15:37:52.716Z,6.38
2023-03-07T15:40:36.313Z,5.82
2023-03-07T15:43:04.515Z,7.72
2023-03-07T15:45:40.403Z,7.90
2023-03-07T15:48:25.017Z,6.43
2023-03-07T15:50:56.427Z,7.15
2023-03-07T15:53:32.304Z,5.13
2023-03-07T15:56:07.991Z,6.32
2023-03-07T15:58:37.269Z,7.00
2023-03-07T16:01:25.447Z,13.05
2023-03-07T16:03:58.215Z,6.35
2023-03-07T16:06:45.781Z,8.15
2023-03-07T16:09:17.474Z,8.30
2023-03-07T16:11:46.600Z,5.85
2023-03-07T16:14:32.689Z,6.15
2023-03-07T16:17:31.945Z,5.97
2023-03-07T16:19:59.108Z,6.65
2023-03-07T16:22:26.155Z,6.20
2023-03-07T16:24:53.203Z,5.82
2023-03-07T16:27:25.718Z,6.95
2023-03-07T16:29:53.807Z,6.18
2023-03-07T16:32:22.972Z,7.30
2023-03-07T16:34:51.006Z,6.50
2023-03-07T16:37:18.210Z,7.00
2023-03-07T16:39:45.144Z,5.75
2023-03-07T16:42:22.563Z,8.27
2023-03-07T16:44:51.657Z,5.63
2023-03-07T16:47:19.072Z,7.72
2023-03-07T16:49:50.876Z,8.60
2023-03-07T16:52:17.772Z,6.88
2023-03-07T16:54:44.754Z,6.70
2023-03-07T16:57:17.064Z,7.90
2023-03-07T16:59:47.315Z,7.18
2023-03-07T17:02:19.336Z,7.32
2023-03-07T17:04:46.934Z,6.93
2023-03-07T17:07:18.255Z,8.90
2023-03-07T17:09:46.230Z,5.90
2023-03-07T17:12:14.059Z,5.05
2023-03-07T17:14:42.474Z,6.43
2023-03-07T17:17:18.109Z,6.93
2023-03-07T17:19:46.057Z,7.40
2023-03-07T17:22:13.448Z,5.85
2023-03-07T17:24:40.816Z,7.25
2023-03-07T17:27:08.743Z,6.97
2023-03-07T17:29:39.311Z,7.60
2023-03-07T17:32:07.335Z,9.60
2023-03-07T17:34:36.154Z,7.95
2023-03-07T17:37:04.736Z,8.48
2023-03-07T17:39:34.319Z,7.72
2023-03-07T17:42:02.565Z,6.30
2023-03-07T17:44:30.586Z,5.75
2023-03-07T17:46:58.416Z,8.85
2023-03-07T17:49:31.594Z,5.03
2023-03-07T17:51:58.628Z,5.28
2023-03-07T17:54:25.895Z,5.45
2023-03-07T17:56:52.840Z,4.95
2023-03-07T17:59:19.817Z,4.70
2023-03-07T18:01:46.764Z,4.32
2023-03-07T18:04:13.952Z,5.63
2023-03-07T18:06:41.187Z,3.45
2023-03-07T18:09:08.376Z,3.85
2023-03-07T18:11:35.781Z,4.05
2023-03-07T18:14:03.635Z,2.65
2023-03-07T18:16:31.388Z,3.28
2023-03-07T18:19:00.692Z,2.65
2023-03-07T18:21:30.392Z,2.55
2023-03-07T18:23:58.402Z,2.22
2023-03-07T18:26:25.586Z,2.33
2023-03-07T18:28:53.770Z,3.22
2023-03-07T18:31:28.550Z,3.75
2023-03-07T18:33:56.188Z,3.03
2023-03-07T18:36:27.620Z,2.28
2023-03-07T18:38:54.751Z,2.15
2023-03-07T18:41:24.812Z,2.10
2023-03-07T18:43:54.758Z,3.90
2023-03-07T18:46:25.067Z,2.50
2023-03-07T18:48:52.666Z,3.10
2023-03-07T18:51:26.663Z,3.38
2023-03-07T18:54:03.640Z,3.45
2023-03-07T18:56:30.831Z,5.53
2023-03-07T18:58:59.108Z,6.15
2023-03-07T19:01:30.143Z,5.22
2023-03-07T19:04:03.003Z,3.70
2023-03-07T19:06:40.653Z,4.63
2023-03-07T19:09:15.141Z,3.67
2023-03-07T19:11:42.812Z,6.70
2023-03-07T19:14:09.842Z,7.00
2023-03-07T19:16:37.177Z,4.97
2023-03-07T19:19:05.076Z,5.13
2023-03-07T19:21:32.948Z,7.05
2023-03-07T19:24:02.912Z,6.70
2023-03-07T19:26:30.547Z,7.38
2023-03-07T19:28:58.091Z,5.40
2023-03-07T19:31:30.085Z,4.72
2023-03-07T19:33:58.641Z,6.43
2023-03-07T19:36:29.079Z,5.07
2023-03-07T19:38:59.272Z,4.43
2023-03-07T19:41:29.574Z,6.53
2023-03-07T19:44:00.514Z,4.22
2023-03-07T19:46:28.436Z,4.97
2023-03-07T19:48:56.028Z,5.43
2023-03-07T19:51:26.893Z,7.82
2023-03-07T19:53:57.351Z,5.38
2023-03-07T19:56:29.091Z,5.53
2023-03-07T19:58:59.417Z,6.40
2023-03-07T20:01:29.763Z,6.90
2023-03-07T20:03:57.492Z,8.07
2023-03-07T20:06:31.099Z,6.53
2023-03-07T20:09:00.625Z,5.40
2023-03-07T20:11:31.788Z,5.95
2023-03-07T20:14:02.461Z,6.72
2023-03-07T20:16:32.696Z,6.55
2023-03-07T20:19:04.997Z,6.53
2023-03-07T20:21:36.542Z,6.40
2023-03-07T20:24:05.158Z,6.40
2023-03-07T20:26:39.458Z,6.90
2023-03-07T20:29:09.963Z,4.93
2023-03-07T20:31:39.517Z,6.38
2023-03-07T20:34:08.162Z,9.93
2023-03-07T20:36:37.729Z,6.80
2023-03-07T20:39:10.083Z,8.45
2023-03-07T20:41:37.457Z,8.57
2023-03-07T20:44:09.101Z,9.45
2023-03-07T20:46:37.977Z,8.52
2023-03-07T20:49:06.005Z,9.00
2023-03-07T20:51:36.355Z,8.35
2023-03-07T20:54:26.119Z,9.68
2023-03-07T20:56:54.382Z,9.18
2023-03-07T20:59:23.743Z,7.32
2023-03-07T21:01:51.053Z,8.30
2023-03-07T21:04:21.072Z,7.97
2023-03-07T21:06:49.623Z,7.93
2023-03-07T21:09:19.298Z,8.57
2023-03-07T21:11:49.928Z,7.20
2023-03-07T21:14:19.482Z,6.85
2023-03-07T21:16:46.871Z,7.70
2023-03-07T21:19:14.782Z,7.10
2023-03-07T21:21:42.959Z,8.32
2023-03-07T21:24:12.458Z,8.73
2023-03-07T21:26:39.827Z,8.18
2023-03-07T21:29:09.161Z,10.13
2023-03-07T21:31:38.843Z,8.95
2023-03-07T21:34:11.281Z,10.00
2023-03-07T21:36:39.028Z,8.95
2023-03-07T21:39:10.119Z,8.10
2023-03-07T21:41:37.914Z,7.93
2023-03-07T21:44:06.140Z,6.75
2023-03-07T21:46:33.344Z,8.60
2023-03-07T21:49:01.718Z,9.85
2023-03-07T21:51:28.825Z,8.82
2023-03-07T21:53:55.790Z,9.95
2023-03-07T21:56:23.878Z,11.02
2023-03-07T21:58:51.848Z,7.55
2023-03-07T22:01:29.122Z,9.30
2023-03-07T22:03:59.232Z,9.00
2023-03-07T22:06:27.867Z,8.30
2023-03-07T22:08:54.989Z,6.57
2023-03-07T22:11:22.624Z,7.65
2023-03-07T22:13:50.165Z,7.28
2023-03-07T22:16:23.477Z,9.13
2023-03-07T22:18:57.291Z,8.13
2023-03-07T22:21:27.696Z,8.05
2023-03-07T22:23:58.063Z,8.05
2023-03-07T22:26:25.856Z,9.18
2023-03-07T22:28:53.744Z,8.05
2023-03-07T22:31:20.677Z,8.10
2023-03-07T22:33:48.038Z,9.82
2023-03-07T22:36:15.677Z,10.00
2023-03-07T22:38:44.725Z,9.30
2023-03-07T22:41:17.226Z,11.13
2023-03-07T22:43:44.287Z,14.98
2023-03-07T22:46:12.087Z,11.90
2023-03-07T22:48:40.032Z,13.23
2023-03-07T22:51:18.080Z,10.88
2023-03-07T22:53:45.112Z,9.98
2023-03-07T22:56:23.880Z,4.82
2023-03-07T22:58:51.140Z,6.22
2023-03-07T23:01:27.941Z,3.58
2023-03-07T23:03:57.126Z,2.28
2023-03-07T23:06:30.696Z,3.30
2023-03-07T23:08:59.624Z,2.60
2023-03-07T23:11:29.979Z,2.40
2023-03-07T23:13:57.511Z,3.45
2023-03-07T23:16:30.110Z,3.13
2023-03-07T23:18:59.186Z,3.38
2023-03-07T23:21:30.047Z,4.05
2023-03-07T23:23:59.368Z,1.95
2023-03-07T23:26:33.580Z,4.50
2023-03-07T23:29:01.336Z,1.83
2023-03-07T23:31:33.225Z,2.08
2023-03-07T23:34:22.619Z,2.55
2023-03-07T23:36:49.757Z,1.65
2023-03-07T23:39:17.530Z,2.22
2023-03-07T23:41:44.683Z,3.28
2023-03-07T23:44:12.444Z,2.13
2023-03-07T23:46:39.758Z,1.92
2023-03-07T23:49:06.832Z,2.55
2023-03-07T23:51:33.930Z,5.43
2023-03-07T23:54:00.904Z,3.30
2023-03-07T23:56:27.895Z,1.67
2023-03-07T23:58:54.913Z,2.13
